Time;durP1;ratioP1;P1;durP2;ratioP2;P2;SDS_P1;SDS_P2;PMS_P1;PMS_P2;Temp;Humidity;BMP_temperature;BMP_pressure;BME280_temperature;BME280_humidity;BME280_pressure;Samples;Min_cycle;Max_cycle;Signal;HPM_P1;HPM_P2
2021/12/07 00:00:46;;;;;;;20.58;13.57;;;;;;;;;;5057615;28;20599;-78
2021/12/07 00:03:12;;;;;;;31.92;22.17;;;;;;;;;;5076045;28;20099;-78
2021/12/07 00:05:37;;;;;;;32.38;22.00;;;;;;;;;;5057210;28;20118;-79
2021/12/07 00:08:03;;;;;;;33.08;23.30;;;;;;;;;;5074464;28;20032;-78
2021/12/07 00:10:28;;;;;;;34.22;23.17;;;;;;;;;;5075527;28;20382;-79
2021/12/07 00:12:54;;;;;;;21.00;14.18;;;;;;;;;;5057483;28;20028;-79
2021/12/07 00:15:22;;;;;;;14.45;10.73;;;;;;;;;;5075544;28;21144;-79
2021/12/07 00:17:47;;;;;;;20.98;14.73;;;;;;;;;;5076380;28;20020;-78
2021/12/07 00:20:15;;;;;;;18.98;14.63;;;;;;;;;;5074869;28;20374;-79
2021/12/07 00:22:41;;;;;;;28.63;18.13;;;;;;;;;;5057145;28;20054;-80
2021/12/07 00:25:07;;;;;;;44.33;32.67;;;;;;;;;;5057044;28;20111;-78
2021/12/07 00:27:33;;;;;;;59.30;39.13;;;;;;;;;;5056773;28;20031;-78
2021/12/07 00:29:58;;;;;;;37.15;25.15;;;;;;;;;;5057589;28;20016;-77
2021/12/07 00:32:37;;;;;;;42.80;29.85;;;;;;;;;;5075675;28;20023;-78
2021/12/07 00:35:33;;;;;;;58.45;37.72;;;;;;;;;;5075123;28;20441;-79
2021/12/07 00:37:59;;;;;;;63.95;38.05;;;;;;;;;;5056933;28;20020;-79
2021/12/07 00:40:25;;;;;;;79.35;41.63;;;;;;;;;;5056544;28;20028;-78
2021/12/07 00:42:51;;;;;;;85.72;45.42;;;;;;;;;;5057196;28;20016;-79
2021/12/07 00:45:20;;;;;;;69.88;37.13;;;;;;;;;;5075549;28;20153;-79
2021/12/07 00:47:46;;;;;;;81.53;45.47;;;;;;;;;;5075033;28;20052;-79
2021/12/07 00:50:12;;;;;;;78.38;42.10;;;;;;;;;;5075195;28;20095;-79
2021/12/07 00:52:38;;;;;;;89.55;48.65;;;;;;;;;;5075449;28;20484;-78
2021/12/07 00:55:06;;;;;;;55.83;31.05;;;;;;;;;;5074655;28;20060;-79
2021/12/07 00:57:31;;;;;;;42.17;23.80;;;;;;;;;;5069955;28;20056;-76
2021/12/07 00:59:57;;;;;;;34.17;21.17;;;;;;;;;;5053329;28;20020;-78
2021/12/07 01:02:22;;;;;;;31.88;22.02;;;;;;;;;;5055049;28;20017;-75
2021/12/07 01:04:55;;;;;;;28.08;20.10;;;;;;;;;;5055318;28;20032;-78
2021/12/07 01:26:29;;;;;;;11.57;9.45;;;;;;;;;;5058212;28;20031;-77
2021/12/07 01:28:54;;;;;;;16.38;12.55;;;;;;;;;;5058537;28;20033;-77
2021/12/07 01:31:30;;;;;;;14.25;8.85;;;;;;;;;;5074234;28;20089;-77
2021/12/07 01:36:41;;;;;;;13.40;9.43;;;;;;;;;;5058480;28;20063;-77
2021/12/07 01:59:54;;;;;;;68.18;41.60;;;;;;;;;;5078089;28;20031;-77
2021/12/07 02:02:21;;;;;;;70.75;43.20;;;;;;;;;;5078341;28;20020;-77
2021/12/07 02:04:46;;;;;;;62.80;39.83;;;;;;;;;;5059992;28;20052;-77
2021/12/07 02:07:12;;;;;;;68.07;42.08;;;;;;;;;;5059624;28;20086;-77
2021/12/07 02:09:42;;;;;;;73.75;44.00;;;;;;;;;;5078490;28;20455;-77
2021/12/07 02:12:08;;;;;;;63.83;38.90;;;;;;;;;;5077377;28;20437;-77
2021/12/07 02:14:34;;;;;;;60.35;35.70;;;;;;;;;;5078633;28;20063;-77
2021/12/07 02:17:01;;;;;;;75.80;43.63;;;;;;;;;;5077481;28;20026;-77
2021/12/07 02:19:27;;;;;;;77.40;41.65;;;;;;;;;;5077905;28;20260;-77
2021/12/07 02:21:53;;;;;;;71.85;40.08;;;;;;;;;;5078840;28;20020;-77
2021/12/07 02:24:18;;;;;;;70.25;39.75;;;;;;;;;;5077884;28;20115;-76
2021/12/07 02:26:44;;;;;;;80.25;43.22;;;;;;;;;;5058935;28;20127;-77
2021/12/07 02:29:09;;;;;;;79.45;43.17;;;;;;;;;;5077376;28;20120;-77
2021/12/07 02:31:35;;;;;;;77.30;42.75;;;;;;;;;;5077348;28;20031;-76
2021/12/07 02:34:01;;;;;;;49.05;29.20;;;;;;;;;;5077378;28;20455;-76
2021/12/07 02:36:27;;;;;;;46.55;28.73;;;;;;;;;;5059001;28;20051;-77
2021/12/07 02:38:52;;;;;;;110.70;52.22;;;;;;;;;;5059520;28;20024;-77
2021/12/07 02:41:18;;;;;;;121.60;51.40;;;;;;;;;;5058949;28;20439;-77
2021/12/07 02:43:44;;;;;;;88.00;31.92;;;;;;;;;;5077115;28;20020;-77
2021/12/07 02:46:09;;;;;;;22.42;11.18;;;;;;;;;;5076995;28;20038;-77
2021/12/07 02:48:35;;;;;;;54.28;46.13;;;;;;;;;;5059078;28;20032;-77
2021/12/07 02:51:00;;;;;;;45.20;37.88;;;;;;;;;;5077915;28;20024;-77
2021/12/07 02:53:27;;;;;;;64.38;34.20;;;;;;;;;;5077132;28;20045;-77
2021/12/07 02:55:56;;;;;;;49.42;24.50;;;;;;;;;;5059221;28;20073;-77
2021/12/07 02:58:21;;;;;;;59.65;30.73;;;;;;;;;;5077307;28;20075;-77
2021/12/07 03:00:56;;;;;;;22.13;14.80;;;;;;;;;;5076896;28;20058;-77
2021/12/07 03:03:22;;;;;;;14.25;9.50;;;;;;;;;;5077407;28;21116;-77
2021/12/07 03:05:59;;;;;;;13.60;9.10;;;;;;;;;;5058305;28;20035;-77
2021/12/07 03:27:18;;;;;;;47.38;25.60;;;;;;;;;;5076857;28;20080;-77
2021/12/07 03:29:44;;;;;;;42.33;24.42;;;;;;;;;;5074038;28;20020;-77
2021/12/07 03:32:09;;;;;;;31.23;17.88;;;;;;;;;;5076065;28;20044;-78
2021/12/07 03:34:34;;;;;;;25.17;15.15;;;;;;;;;;5077609;28;20352;-76
2021/12/07 03:37:00;;;;;;;63.65;31.67;;;;;;;;;;5057618;28;20058;-76
2021/12/07 03:39:25;;;;;;;46.13;22.38;;;;;;;;;;5077494;28;20024;-76
2021/12/07 03:41:51;;;;;;;27.30;15.10;;;;;;;;;;5076267;28;20032;-76
2021/12/07 03:44:16;;;;;;;34.22;20.80;;;;;;;;;;5076174;28;20027;-76
2021/12/07 03:46:41;;;;;;;30.40;18.75;;;;;;;;;;5074801;28;20459;-76
2021/12/07 03:49:07;;;;;;;35.45;20.67;;;;;;;;;;5057831;28;20031;-76
2021/12/07 03:51:32;;;;;;;47.60;29.23;;;;;;;;;;5057806;28;20068;-77
2021/12/07 03:53:57;;;;;;;56.85;32.95;;;;;;;;;;5074420;28;20115;-76
2021/12/07 03:56:23;;;;;;;42.63;25.10;;;;;;;;;;5075392;28;20133;-77
2021/12/07 03:58:48;;;;;;;32.60;18.23;;;;;;;;;;5076115;28;20482;-76
2021/12/07 04:01:14;;;;;;;41.90;28.08;;;;;;;;;;5075656;28;20026;-77
2021/12/07 04:03:40;;;;;;;50.83;27.98;;;;;;;;;;5075397;28;20047;-77
2021/12/07 04:06:06;;;;;;;59.78;30.65;;;;;;;;;;5074513;28;20040;-76
2021/12/07 04:08:34;;;;;;;36.88;21.17;;;;;;;;;;5074739;28;20028;-77
2021/12/07 04:10:59;;;;;;;34.20;17.95;;;;;;;;;;5056841;28;20416;-77
2021/12/07 04:13:25;;;;;;;29.17;16.20;;;;;;;;;;5075109;28;20099;-76
2021/12/07 04:15:50;;;;;;;23.85;15.07;;;;;;;;;;5075733;28;20035;-76
2021/12/07 04:18:16;;;;;;;22.25;14.85;;;;;;;;;;5057389;28;20024;-76
2021/12/07 04:20:42;;;;;;;22.80;14.38;;;;;;;;;;5074929;28;20031;-77
2021/12/07 04:23:08;;;;;;;19.58;12.45;;;;;;;;;;5075887;28;20024;-77
2021/12/07 04:25:33;;;;;;;23.15;15.27;;;;;;;;;;5058148;28;20058;-77
2021/12/07 04:27:59;;;;;;;29.40;16.98;;;;;;;;;;5075675;28;20028;-77
2021/12/07 04:30:30;;;;;;;28.30;18.15;;;;;;;;;;5076638;28;20742;-77
2021/12/07 04:32:56;;;;;;;24.17;15.48;;;;;;;;;;5056897;28;20024;-77
2021/12/07 04:35:21;;;;;;;26.55;15.93;;;;;;;;;;5074646;28;20024;-77
2021/12/07 04:37:47;;;;;;;22.50;12.27;;;;;;;;;;5075743;28;20035;-77
2021/12/07 04:40:15;;;;;;;12.90;8.90;;;;;;;;;;5073658;28;20366;-77
2021/12/07 04:42:41;;;;;;;12.68;8.00;;;;;;;;;;5058132;28;20119;-77
2021/12/07 04:45:10;;;;;;;9.48;6.85;;;;;;;;;;5075033;28;20115;-77
2021/12/07 04:48:33;;;;;;;6.72;5.00;;;;;;;;;;5056509;28;20111;-77
2021/12/07 04:58:33;;;;;;;41.00;31.00;;;;;;;;;;5074997;28;20058;-77
2021/12/07 05:01:00;;;;;;;266.35;113.07;;;;;;;;;;5075614;28;20024;-76
2021/12/07 05:03:27;;;;;;;47.08;19.85;;;;;;;;;;5075525;28;20524;-77
2021/12/07 05:05:53;;;;;;;14.85;7.55;;;;;;;;;;5075229;28;20105;-77
2021/12/07 05:08:34;;;;;;;20.60;14.95;;;;;;;;;;5075107;28;20458;-77
2021/12/07 05:13:39;;;;;;;24.67;15.55;;;;;;;;;;5075086;28;20036;-77
2021/12/07 05:16:26;;;;;;;11.23;6.72;;;;;;;;;;5075278;28;20024;-77
2021/12/07 05:24:47;;;;;;;103.13;47.42;;;;;;;;;;5075185;28;20039;-77
2021/12/07 05:38:18;;;;;;;7.93;6.28;;;;;;;;;;5054455;28;20564;-77
2021/12/07 05:40:44;;;;;;;119.60;84.18;;;;;;;;;;5050924;28;20108;-77
2021/12/07 05:43:09;;;;;;;116.85;63.15;;;;;;;;;;5039412;28;20077;-76
2021/12/07 05:45:36;;;;;;;168.98;85.60;;;;;;;;;;5053259;28;20379;-77
2021/12/07 05:48:03;;;;;;;173.43;85.82;;;;;;;;;;5052152;28;20083;-77
2021/12/07 05:50:30;;;;;;;78.82;37.85;;;;;;;;;;5054960;28;20028;-77
2021/12/07 05:52:56;;;;;;;61.25;31.48;;;;;;;;;;5055890;28;20065;-77
2021/12/07 05:55:22;;;;;;;62.80;33.95;;;;;;;;;;5039751;28;20025;-77
2021/12/07 05:57:47;;;;;;;51.55;31.23;;;;;;;;;;5036247;28;20045;-77
2021/12/07 06:00:18;;;;;;;26.42;17.65;;;;;;;;;;5037833;28;20085;-76
2021/12/07 06:02:44;;;;;;;18.45;11.40;;;;;;;;;;5035057;28;20028;-77
2021/12/07 06:05:09;;;;;;;31.75;23.63;;;;;;;;;;5036287;28;20620;-77
2021/12/07 06:07:35;;;;;;;15.88;10.25;;;;;;;;;;5028347;28;20061;-79
2021/12/07 06:10:00;;;;;;;9.65;6.03;;;;;;;;;;5037045;28;20064;-77
2021/12/07 06:12:25;;;;;;;10.27;7.70;;;;;;;;;;5034384;28;20418;-76
2021/12/07 06:14:55;;;;;;;11.30;7.50;;;;;;;;;;5036598;28;20060;-77
2021/12/07 06:17:22;;;;;;;13.30;6.18;;;;;;;;;;5035591;28;21011;-78
2021/12/07 06:19:47;;;;;;;10.48;7.05;;;;;;;;;;5036172;28;20468;-77
2021/12/07 06:22:13;;;;;;;13.68;8.98;;;;;;;;;;5036220;28;20027;-77
2021/12/07 06:24:38;;;;;;;12.73;7.88;;;;;;;;;;5035505;28;20025;-77
2021/12/07 06:27:04;;;;;;;26.15;12.30;;;;;;;;;;5036852;28;20029;-76
2021/12/07 06:29:29;;;;;;;12.73;6.55;;;;;;;;;;5037709;28;20021;-77
2021/12/07 06:31:55;;;;;;;36.25;22.48;;;;;;;;;;5037694;28;20040;-78
2021/12/07 06:34:20;;;;;;;94.35;53.97;;;;;;;;;;5037934;28;20475;-78
2021/12/07 06:36:46;;;;;;;44.78;24.25;;;;;;;;;;5036168;28;20021;-77
2021/12/07 06:39:11;;;;;;;100.38;45.58;;;;;;;;;;5035957;28;20163;-76
2021/12/07 06:41:37;;;;;;;103.18;38.03;;;;;;;;;;5037894;28;20025;-78
2021/12/07 06:44:02;;;;;;;31.92;15.10;;;;;;;;;;5035810;28;20029;-78
2021/12/07 06:46:27;;;;;;;51.42;34.65;;;;;;;;;;5036088;28;20039;-78
2021/12/07 06:48:53;;;;;;;378.02;180.82;;;;;;;;;;5037878;28;20458;-77
2021/12/07 06:51:18;;;;;;;122.75;50.85;;;;;;;;;;5037392;28;20025;-77
2021/12/07 06:53:44;;;;;;;70.53;41.90;;;;;;;;;;5037316;28;20032;-76
2021/12/07 06:56:10;;;;;;;146.32;84.13;;;;;;;;;;5036368;28;20456;-76
2021/12/07 06:58:35;;;;;;;162.02;95.68;;;;;;;;;;5052188;28;20039;-77
2021/12/07 07:01:01;;;;;;;119.93;73.72;;;;;;;;;;5027223;28;20029;-75
2021/12/07 07:03:27;;;;;;;339.25;182.45;;;;;;;;;;5035451;28;20021;-76
2021/12/07 07:05:52;;;;;;;177.57;92.05;;;;;;;;;;5017240;28;20087;-76
2021/12/07 07:08:18;;;;;;;80.90;46.40;;;;;;;;;;5034829;28;20056;-78
2021/12/07 07:10:43;;;;;;;41.08;26.08;;;;;;;;;;5014474;28;20118;-79
2021/12/07 07:13:10;;;;;;;54.35;38.00;;;;;;;;;;5019004;28;20403;-80
2021/12/07 07:15:36;;;;;;;56.45;37.78;;;;;;;;;;5041169;28;20025;-79
2021/12/07 07:18:06;;;;;;;41.83;26.73;;;;;;;;;;5025961;28;20029;-77
2021/12/07 07:20:32;;;;;;;38.08;24.42;;;;;;;;;;5024749;28;20032;-76
2021/12/07 07:22:57;;;;;;;114.93;66.00;;;;;;;;;;5042853;28;20079;-77
2021/12/07 07:25:23;;;;;;;41.97;21.15;;;;;;;;;;5038328;28;20460;-77
2021/12/07 07:27:50;;;;;;;34.20;18.33;;;;;;;;;;5021680;28;20484;-76
2021/12/07 07:30:17;;;;;;;25.13;16.48;;;;;;;;;;5040249;28;20091;-77
2021/12/07 07:32:43;;;;;;;104.47;48.33;;;;;;;;;;5021060;28;20028;-77
2021/12/07 07:35:09;;;;;;;106.10;51.50;;;;;;;;;;5022644;28;20025;-77
2021/12/07 07:37:34;;;;;;;62.17;30.23;;;;;;;;;;5041121;28;20021;-77
2021/12/07 07:40:00;;;;;;;73.78;40.17;;;;;;;;;;5023049;28;20075;-78
2021/12/07 07:42:25;;;;;;;52.78;30.65;;;;;;;;;;5023252;28;20025;-78
2021/12/07 07:44:50;;;;;;;48.55;29.08;;;;;;;;;;5021412;28;20025;-78
2021/12/07 07:47:16;;;;;;;87.88;50.13;;;;;;;;;;5022694;28;20484;-78
2021/12/07 07:49:41;;;;;;;58.53;37.22;;;;;;;;;;5042106;28;20024;-77
2021/12/07 07:52:07;;;;;;;37.08;22.45;;;;;;;;;;5021861;28;20572;-78
2021/12/07 07:54:32;;;;;;;14.07;9.77;;;;;;;;;;5023144;28;20033;-78
2021/12/07 07:56:58;;;;;;;15.57;12.07;;;;;;;;;;5032802;28;20459;-77
2021/12/07 07:59:23;;;;;;;20.80;18.10;;;;;;;;;;5058804;28;20035;-78
2021/12/07 08:01:48;;;;;;;17.25;15.45;;;;;;;;;;5060724;28;21111;-78
2021/12/07 08:04:14;;;;;;;84.70;33.38;;;;;;;;;;5059925;28;20028;-78
2021/12/07 08:06:39;;;;;;;41.58;19.20;;;;;;;;;;5059558;28;20028;-78
2021/12/07 08:09:05;;;;;;;18.92;12.45;;;;;;;;;;5060763;28;20601;-76
2021/12/07 08:11:31;;;;;;;20.05;14.30;;;;;;;;;;5059243;28;20291;-78
2021/12/07 08:13:57;;;;;;;22.38;14.35;;;;;;;;;;5061401;28;20062;-77
2021/12/07 08:16:22;;;;;;;11.38;8.93;;;;;;;;;;5061128;28;20036;-77
2021/12/07 08:18:50;;;;;;;15.23;9.15;;;;;;;;;;5061890;28;20047;-78
2021/12/07 08:21:16;;;;;;;37.25;24.08;;;;;;;;;;5063207;28;20143;-79
2021/12/07 08:23:45;;;;;;;26.27;17.05;;;;;;;;;;5061905;28;20503;-78
2021/12/07 08:26:12;;;;;;;59.23;34.20;;;;;;;;;;5057426;28;20562;-78
2021/12/07 08:28:37;;;;;;;25.05;12.27;;;;;;;;;;5042891;28;20043;-78
2021/12/07 08:31:03;;;;;;;211.80;130.27;;;;;;;;;;5041389;28;20468;-79
2021/12/07 08:33:29;;;;;;;46.65;26.88;;;;;;;;;;5042652;28;20467;-77
2021/12/07 08:35:54;;;;;;;92.70;66.45;;;;;;;;;;5039896;28;20103;-79
2021/12/07 08:38:20;;;;;;;35.38;22.63;;;;;;;;;;5038583;28;20028;-78
2021/12/07 08:40:53;;;;;;;28.17;20.25;;;;;;;;;;5038243;28;20039;-79
2021/12/07 08:43:18;;;;;;;15.93;13.07;;;;;;;;;;5041359;28;20032;-78
2021/12/07 08:45:44;;;;;;;26.85;19.10;;;;;;;;;;5041867;28;20482;-79
2021/12/07 08:48:09;;;;;;;22.42;15.65;;;;;;;;;;5040547;28;20111;-79
2021/12/07 08:50:35;;;;;;;15.07;10.50;;;;;;;;;;5042154;28;20067;-79
2021/12/07 08:53:03;;;;;;;25.92;18.45;;;;;;;;;;5033538;28;20115;-78
2021/12/07 09:01:00;;;;;;;40.97;27.58;;;;;;;;;;5038865;28;20027;-82
2021/12/07 09:03:27;;;;;;;66.72;46.08;;;;;;;;;;5031887;28;20025;-80
2021/12/07 09:05:52;;;;;;;70.68;45.42;;;;;;;;;;5014823;28;20578;-80
2021/12/07 09:08:18;;;;;;;72.78;44.75;;;;;;;;;;5033161;28;20737;-80
2021/12/07 09:10:43;;;;;;;115.28;58.95;;;;;;;;;;5014803;28;20032;-81
2021/12/07 09:13:09;;;;;;;96.05;54.53;;;;;;;;;;5014324;28;20032;-81
2021/12/07 09:15:34;;;;;;;53.67;37.85;;;;;;;;;;5048016;28;20036;-82
2021/12/07 09:18:00;;;;;;;39.05;29.83;;;;;;;;;;5013749;28;20046;-80
2021/12/07 09:20:25;;;;;;;50.17;41.40;;;;;;;;;;5016368;28;20035;-80
2021/12/07 09:22:51;;;;;;;35.05;26.65;;;;;;;;;;5034351;28;20031;-79
2021/12/07 09:25:17;;;;;;;30.83;19.80;;;;;;;;;;5016422;28;20120;-80
2021/12/07 09:27:43;;;;;;;45.00;28.67;;;;;;;;;;5019200;28;20025;-81
2021/12/07 09:30:10;;;;;;;45.45;34.25;;;;;;;;;;5020696;28;20035;-80
2021/12/07 09:32:36;;;;;;;29.30;22.58;;;;;;;;;;5020460;28;20044;-80
2021/12/07 09:35:02;;;;;;;26.33;20.65;;;;;;;;;;5020053;28;20052;-81
2021/12/07 09:37:28;;;;;;;16.20;14.13;;;;;;;;;;5030505;28;20032;-79
2021/12/07 09:39:53;;;;;;;14.90;11.77;;;;;;;;;;5036440;28;20078;-80
2021/12/07 09:42:19;;;;;;;18.55;12.20;;;;;;;;;;5020641;28;20369;-80
2021/12/07 09:44:44;;;;;;;148.52;73.60;;;;;;;;;;5031107;28;20025;-80
2021/12/07 09:47:10;;;;;;;73.72;41.80;;;;;;;;;;5032298;28;20021;-79
2021/12/07 09:49:35;;;;;;;41.30;23.70;;;;;;;;;;5038437;28;20096;-80
2021/12/07 09:52:00;;;;;;;39.60;20.02;;;;;;;;;;5037367;28;20031;-80
2021/12/07 09:54:26;;;;;;;111.80;56.42;;;;;;;;;;5037511;28;20025;-79
2021/12/07 09:56:51;;;;;;;64.43;32.88;;;;;;;;;;5048411;28;20471;-80
2021/12/07 09:59:17;;;;;;;57.15;31.70;;;;;;;;;;5076314;28;20020;-80
2021/12/07 10:01:42;;;;;;;48.45;21.25;;;;;;;;;;5058396;28;20016;-80
2021/12/07 10:04:08;;;;;;;40.20;23.42;;;;;;;;;;5077668;28;20031;-79
2021/12/07 10:06:34;;;;;;;37.38;21.27;;;;;;;;;;5060183;28;20019;-80
2021/12/07 10:08:59;;;;;;;36.15;24.83;;;;;;;;;;5059914;28;20387;-80
2021/12/07 10:11:24;;;;;;;56.38;34.13;;;;;;;;;;5078504;28;20114;-79
2021/12/07 10:13:51;;;;;;;27.23;15.82;;;;;;;;;;5060129;28;20475;-79
2021/12/07 10:16:18;;;;;;;25.13;16.17;;;;;;;;;;5059820;28;20372;-80
2021/12/07 10:18:43;;;;;;;25.95;18.05;;;;;;;;;;5076540;28;20027;-80
2021/12/07 10:21:13;;;;;;;31.52;21.83;;;;;;;;;;5077404;28;20605;-80
2021/12/07 10:23:40;;;;;;;27.95;19.55;;;;;;;;;;5061150;28;20085;-79
2021/12/07 10:26:06;;;;;;;18.50;14.20;;;;;;;;;;5077948;28;20077;-80
2021/12/07 10:28:36;;;;;;;29.20;20.83;;;;;;;;;;5075213;28;20032;-80
2021/12/07 10:31:04;;;;;;;19.83;15.57;;;;;;;;;;5038690;28;20378;-81
2021/12/07 10:33:29;;;;;;;37.38;28.27;;;;;;;;;;5039839;28;20028;-80
2021/12/07 10:36:08;;;;;;;33.88;22.77;;;;;;;;;;5057470;28;20029;-80
2021/12/07 10:38:34;;;;;;;30.85;19.80;;;;;;;;;;5038968;28;20032;-78
2021/12/07 10:41:02;;;;;;;24.48;18.45;;;;;;;;;;5053160;28;20032;-77
2021/12/07 10:43:41;;;;;;;30.77;19.23;;;;;;;;;;5044306;28;20025;-78
2021/12/07 10:46:25;;;;;;;43.15;24.77;;;;;;;;;;5041937;28;20029;-81
2021/12/07 10:49:06;;;;;;;22.70;16.90;;;;;;;;;;5048150;28;20403;-81
2021/12/07 10:51:31;;;;;;;40.13;22.63;;;;;;;;;;5055263;28;20029;-79
2021/12/07 10:53:56;;;;;;;32.47;20.85;;;;;;;;;;5041990;28;20021;-80
2021/12/07 10:56:32;;;;;;;22.85;15.85;;;;;;;;;;5040901;28;20029;-81
2021/12/07 10:59:08;;;;;;;23.85;17.33;;;;;;;;;;5048637;28;20460;-82
2021/12/07 11:01:35;;;;;;;33.05;25.42;;;;;;;;;;5046970;28;20463;-81
2021/12/07 11:04:22;;;;;;;27.45;21.10;;;;;;;;;;5046931;28;20526;-82
2021/12/07 11:07:07;;;;;;;35.83;20.67;;;;;;;;;;5058173;28;20032;-79
2021/12/07 11:09:47;;;;;;;22.95;18.25;;;;;;;;;;5041499;28;20055;-81
2021/12/07 11:12:14;;;;;;;35.85;24.90;;;;;;;;;;5046128;28;20017;-80
2021/12/07 11:14:41;;;;;;;25.38;16.98;;;;;;;;;;5046445;28;20028;-79
2021/12/07 11:17:10;;;;;;;21.33;14.52;;;;;;;;;;5064891;28;20032;-79
2021/12/07 11:19:36;;;;;;;16.00;12.68;;;;;;;;;;5047331;28;20023;-80
2021/12/07 11:22:02;;;;;;;26.98;19.10;;;;;;;;;;5051621;28;20577;-80
2021/12/07 11:24:38;;;;;;;63.45;32.33;;;;;;;;;;5045487;28;20118;-79
2021/12/07 11:29:57;;;;;;;19.52;11.27;;;;;;;;;;5061468;28;20028;-80
2021/12/07 11:32:22;;;;;;;24.75;14.18;;;;;;;;;;5036377;28;20013;-80
2021/12/07 11:34:48;;;;;;;53.60;26.90;;;;;;;;;;5041196;28;20024;-81
2021/12/07 11:37:22;;;;;;;55.95;30.50;;;;;;;;;;5055360;28;20452;-80
2021/12/07 11:39:55;;;;;;;36.33;21.70;;;;;;;;;;5035128;28;20032;-81
2021/12/07 11:42:21;;;;;;;;;;;;;;;;;;5035146;28;20423;-81
2021/12/07 11:44:59;;;;;;;51.08;25.25;;;;;;;;;;5035472;28;19919;-81
2021/12/07 11:47:40;;;;;;;62.63;30.52;;;;;;;;;;5036945;28;20365;-81
2021/12/07 11:50:21;;;;;;;38.83;22.75;;;;;;;;;;5033736;28;20021;-79
2021/12/07 11:52:48;;;;;;;59.65;33.95;;;;;;;;;;5046162;28;20076;-82
2021/12/07 11:55:15;;;;;;;31.27;16.13;;;;;;;;;;5055036;28;20020;-79
2021/12/07 11:57:41;;;;;;;22.77;15.75;;;;;;;;;;5024745;28;20045;-79
2021/12/07 12:00:08;;;;;;;28.73;18.65;;;;;;;;;;5020873;28;20036;-80
2021/12/07 12:02:33;;;;;;;28.42;17.13;;;;;;;;;;5021924;28;20039;-76
2021/12/07 12:04:58;;;;;;;31.77;19.08;;;;;;;;;;5031972;28;20033;-76
2021/12/07 12:07:24;;;;;;;23.95;16.52;;;;;;;;;;5031875;28;20048;-76
2021/12/07 12:09:51;;;;;;;13.60;10.25;;;;;;;;;;5021597;28;20117;-80
2021/12/07 12:12:17;;;;;;;31.15;16.85;;;;;;;;;;5019874;28;20059;-81
2021/12/07 12:14:48;;;;;;;19.20;12.63;;;;;;;;;;5021170;28;20060;-80
2021/12/07 12:17:22;;;;;;;42.20;20.95;;;;;;;;;;5036490;28;20025;-81
2021/12/07 12:20:03;;;;;;;56.63;26.58;;;;;;;;;;5021059;28;20044;-82
2021/12/07 12:22:42;;;;;;;34.65;19.95;;;;;;;;;;5037533;28;20037;-82
2021/12/07 12:25:10;;;;;;;41.50;24.20;;;;;;;;;;5036952;28;20029;-81
2021/12/07 12:27:35;;;;;;;25.92;15.30;;;;;;;;;;5019801;28;20265;-81
2021/12/07 12:30:21;;;;;;;53.65;27.65;;;;;;;;;;5031616;28;20384;-80
2021/12/07 12:32:50;;;;;;;30.05;16.88;;;;;;;;;;5011462;28;20043;-81
2021/12/07 12:35:16;;;;;;;43.92;25.35;;;;;;;;;;5030635;28;20818;-80
2021/12/07 12:37:46;;;;;;;38.90;19.48;;;;;;;;;;5020671;28;20037;-82
2021/12/07 12:40:18;;;;;;;34.55;20.13;;;;;;;;;;5020492;28;20615;-82
2021/12/07 12:42:44;;;;;;;53.83;29.27;;;;;;;;;;5019509;28;20802;-80
2021/12/07 12:45:25;;;;;;;67.05;39.42;;;;;;;;;;5016038;28;20491;-81
2021/12/07 12:47:55;;;;;;;34.88;20.77;;;;;;;;;;5013586;28;20214;-79
2021/12/07 12:50:30;;;;;;;36.55;23.48;;;;;;;;;;5034575;28;20028;-78
2021/12/07 12:52:57;;;;;;;29.98;21.58;;;;;;;;;;5034952;28;20025;-79
2021/12/07 12:55:35;;;;;;;38.20;23.52;;;;;;;;;;5033449;28;20499;-79
2021/12/07 12:58:03;;;;;;;30.67;17.92;;;;;;;;;;5041121;28;20447;-80
2021/12/07 13:00:47;;;;;;;67.88;38.83;;;;;;;;;;5044624;28;20020;-78
2021/12/07 13:03:12;;;;;;;75.85;41.90;;;;;;;;;;5041039;28;20100;-78
2021/12/07 13:05:42;;;;;;;38.22;22.80;;;;;;;;;;5027525;28;20115;-79
2021/12/07 13:08:18;;;;;;;60.08;33.58;;;;;;;;;;5044667;28;20597;-79
2021/12/07 13:11:04;;;;;;;59.33;34.67;;;;;;;;;;5052986;28;20523;-77
2021/12/07 13:13:33;;;;;;;63.10;36.50;;;;;;;;;;5052782;28;20391;-78
2021/12/07 13:15:59;;;;;;;34.67;21.40;;;;;;;;;;5033824;28;20082;-79
2021/12/07 13:18:32;;;;;;;67.13;36.70;;;;;;;;;;5052672;28;20032;-79
2021/12/07 13:20:57;;;;;;;67.53;36.10;;;;;;;;;;5054980;28;20082;-79
2021/12/07 13:23:28;;;;;;;38.97;21.23;;;;;;;;;;5055251;28;20021;-77
2021/12/07 13:25:54;;;;;;;51.85;30.27;;;;;;;;;;5054010;28;20505;-79
2021/12/07 13:28:22;;;;;;;120.90;70.93;;;;;;;;;;5051896;28;20074;-78
2021/12/07 13:30:53;;;;;;;42.33;22.75;;;;;;;;;;5038942;28;20106;-79
2021/12/07 13:33:21;;;;;;;75.30;38.25;;;;;;;;;;5033325;28;20025;-78
2021/12/07 13:35:47;;;;;;;52.13;30.08;;;;;;;;;;5032991;28;20033;-79
2021/12/07 13:38:14;;;;;;;45.08;31.27;;;;;;;;;;5034687;28;20112;-78
2021/12/07 13:40:39;;;;;;;158.55;73.13;;;;;;;;;;5032768;28;20391;-77
2021/12/07 13:43:05;;;;;;;80.82;47.15;;;;;;;;;;5033305;28;20017;-78
2021/12/07 13:45:30;;;;;;;48.05;27.30;;;;;;;;;;5030753;28;20036;-78
2021/12/07 13:47:55;;;;;;;63.30;40.30;;;;;;;;;;5054696;28;20021;-78
2021/12/07 13:50:22;;;;;;;33.03;21.20;;;;;;;;;;5054790;28;20475;-80
2021/12/07 13:52:49;;;;;;;32.65;19.02;;;;;;;;;;5036390;28;20070;-78
2021/12/07 13:55:19;;;;;;;28.58;15.82;;;;;;;;;;5050088;28;20021;-78
2021/12/07 13:57:47;;;;;;;34.13;22.42;;;;;;;;;;5037898;28;20404;-79
2021/12/07 14:00:12;;;;;;;55.00;32.95;;;;;;;;;;5032819;28;20057;-78
2021/12/07 14:02:40;;;;;;;43.28;27.13;;;;;;;;;;5034229;28;20728;-78
2021/12/07 14:05:25;;;;;;;31.63;18.92;;;;;;;;;;5032611;28;20021;-77
2021/12/07 14:07:51;;;;;;;46.63;27.30;;;;;;;;;;5031561;28;20048;-78
2021/12/07 14:10:20;;;;;;;40.17;23.33;;;;;;;;;;5034100;28;20017;-78
2021/12/07 14:12:47;;;;;;;31.17;19.38;;;;;;;;;;5034883;28;20507;-79
2021/12/07 14:15:12;;;;;;;30.83;22.15;;;;;;;;;;5036614;28;20064;-78
2021/12/07 14:17:42;;;;;;;35.88;25.45;;;;;;;;;;5037874;28;20055;-79
2021/12/07 14:20:08;;;;;;;27.17;17.52;;;;;;;;;;5037330;28;20100;-80
2021/12/07 14:22:33;;;;;;;91.18;42.53;;;;;;;;;;5035795;28;20143;-78
2021/12/07 14:24:59;;;;;;;103.78;49.72;;;;;;;;;;5056005;28;20075;-78
2021/12/07 14:27:25;;;;;;;48.03;27.05;;;;;;;;;;5038913;28;20032;-78
2021/12/07 14:29:51;;;;;;;87.85;50.75;;;;;;;;;;5057889;28;20039;-79
2021/12/07 14:32:16;;;;;;;68.78;37.40;;;;;;;;;;5057489;28;20387;-78
2021/12/07 14:34:42;;;;;;;60.95;36.40;;;;;;;;;;5057560;28;20096;-79
2021/12/07 14:37:08;;;;;;;59.28;32.33;;;;;;;;;;5057901;28;20095;-77
2021/12/07 14:39:43;;;;;;;63.25;35.30;;;;;;;;;;5041399;28;20107;-77
2021/12/07 14:42:10;;;;;;;62.30;37.03;;;;;;;;;;5055059;28;20031;-77
2021/12/07 14:44:41;;;;;;;40.13;22.42;;;;;;;;;;5042129;28;20529;-78
2021/12/07 14:47:08;;;;;;;40.72;24.45;;;;;;;;;;5038329;28;20059;-76
2021/12/07 14:49:34;;;;;;;79.80;47.45;;;;;;;;;;5046931;28;20031;-77
2021/12/07 14:52:00;;;;;;;84.57;49.03;;;;;;;;;;5063086;28;20016;-77
2021/12/07 14:54:25;;;;;;;54.95;28.98;;;;;;;;;;5043297;28;20097;-76
2021/12/07 14:56:53;;;;;;;62.53;36.70;;;;;;;;;;5055876;28;20071;-77
2021/12/07 14:59:19;;;;;;;66.85;30.95;;;;;;;;;;5055691;28;20035;-76
2021/12/07 15:01:46;;;;;;;69.68;37.63;;;;;;;;;;5071114;28;20043;-76
2021/12/07 15:04:14;;;;;;;121.72;56.70;;;;;;;;;;5048540;28;20429;-77
2021/12/07 15:06:48;;;;;;;93.97;46.53;;;;;;;;;;5052132;28;20039;-77
2021/12/07 15:09:13;;;;;;;50.42;30.48;;;;;;;;;;5055590;28;20017;-77
2021/12/07 15:11:40;;;;;;;69.95;36.03;;;;;;;;;;5047046;28;20032;-78
2021/12/07 15:14:07;;;;;;;87.75;40.05;;;;;;;;;;5036534;28;20060;-76
2021/12/07 15:16:34;;;;;;;79.13;41.22;;;;;;;;;;5055261;28;20029;-76
2021/12/07 15:19:01;;;;;;;132.25;62.90;;;;;;;;;;5036169;28;20391;-76
2021/12/07 15:21:27;;;;;;;77.53;49.42;;;;;;;;;;5056546;28;20070;-76
2021/12/07 15:23:54;;;;;;;66.90;42.70;;;;;;;;;;5035921;28;20098;-78
2021/12/07 15:26:20;;;;;;;63.90;38.83;;;;;;;;;;5040811;28;20813;-76
2021/12/07 15:28:52;;;;;;;66.03;35.05;;;;;;;;;;5055323;28;20730;-76
2021/12/07 15:31:24;;;;;;;32.47;20.35;;;;;;;;;;5054658;28;20526;-77
2021/12/07 15:33:51;;;;;;;76.57;48.33;;;;;;;;;;5036986;28;20021;-75
2021/12/07 15:36:18;;;;;;;58.72;36.55;;;;;;;;;;5054856;28;20085;-76
2021/12/07 15:38:43;;;;;;;33.72;22.52;;;;;;;;;;5037122;28;20356;-77
2021/12/07 15:41:10;;;;;;;29.35;18.02;;;;;;;;;;5054699;28;20028;-76
2021/12/07 15:43:39;;;;;;;18.75;14.38;;;;;;;;;;5055155;28;20021;-76
2021/12/07 15:46:04;;;;;;;38.13;22.05;;;;;;;;;;5055928;28;20077;-75
2021/12/07 15:48:31;;;;;;;69.97;51.25;;;;;;;;;;5037180;28;20029;-75
2021/12/07 15:51:21;;;;;;;147.25;86.38;;;;;;;;;;5040702;28;20434;-78
2021/12/07 15:53:47;;;;;;;171.20;96.38;;;;;;;;;;5039845;28;20040;-76
2021/12/07 15:56:16;;;;;;;105.82;65.78;;;;;;;;;;5009752;28;1286020;-77